sensor_id;sensor_type;location;lat;lon;timestamp;P1;durP1;ratioP1;P2;durP2;ratioP2
5351;SDS011;2698;51.454;6.736;2023-08-08T00:01:31;6.83;;;3.33;;
5351;SDS011;2698;51.454;6.736;2023-08-08T00:03:59;7.23;;;3.40;;
5351;SDS011;2698;51.454;6.736;2023-08-08T00:06:26;3.70;;;3.40;;
5351;SDS011;2698;51.454;6.736;2023-08-08T00:08:53;3.30;;;3.00;;
5351;SDS011;2698;51.454;6.736;2023-08-08T00:11:20;5.60;;;3.00;;
5351;SDS011;2698;51.454;6.736;2023-08-08T00:13:49;4.57;;;2.67;;
5351;SDS011;2698;51.454;6.736;2023-08-08T00:16:16;3.67;;;3.00;;
5351;SDS011;2698;51.454;6.736;2023-08-08T00:18:43;6.87;;;2.37;;
5351;SDS011;2698;51.454;6.736;2023-08-08T00:21:10;2.80;;;2.67;;
5351;SDS011;2698;51.454;6.736;2023-08-08T00:23:37;3.63;;;1.93;;
5351;SDS011;2698;51.454;6.736;2023-08-08T00:26:04;3.53;;;3.20;;
5351;SDS011;2698;51.454;6.736;2023-08-08T00:28:32;5.60;;;2.90;;
5351;SDS011;2698;51.454;6.736;2023-08-08T00:31:00;5.97;;;3.30;;
5351;SDS011;2698;51.454;6.736;2023-08-08T00:33:27;3.47;;;3.20;;
5351;SDS011;2698;51.454;6.736;2023-08-08T00:35:54;3.60;;;2.40;;
5351;SDS011;2698;51.454;6.736;2023-08-08T00:38:21;6.87;;;3.10;;
5351;SDS011;2698;51.454;6.736;2023-08-08T00:40:48;6.03;;;4.03;;
5351;SDS011;2698;51.454;6.736;2023-08-08T00:43:15;3.27;;;3.07;;
5351;SDS011;2698;51.454;6.736;2023-08-08T00:45:42;13.73;;;3.70;;
5351;SDS011;2698;51.454;6.736;2023-08-08T00:48:11;4.33;;;3.30;;
5351;SDS011;2698;51.454;6.736;2023-08-08T00:50:41;8.50;;;3.83;;
5351;SDS011;2698;51.454;6.736;2023-08-08T00:53:08;7.93;;;3.07;;
5351;SDS011;2698;51.454;6.736;2023-08-08T00:55:36;5.90;;;3.70;;
5351;SDS011;2698;51.454;6.736;2023-08-08T00:58:03;6.67;;;4.00;;
5351;SDS011;2698;51.454;6.736;2023-08-08T01:00:30;5.77;;;3.53;;
5351;SDS011;2698;51.454;6.736;2023-08-08T01:02:57;5.63;;;4.57;;
5351;SDS011;2698;51.454;6.736;2023-08-08T01:05:26;16.10;;;4.50;;
5351;SDS011;2698;51.454;6.736;2023-08-08T01:07:57;8.90;;;4.03;;
5351;SDS011;2698;51.454;6.736;2023-08-08T01:10:26;4.77;;;3.60;;
5351;SDS011;2698;51.454;6.736;2023-08-08T01:12:55;7.63;;;3.70;;
5351;SDS011;2698;51.454;6.736;2023-08-08T01:15:24;10.87;;;3.70;;
5351;SDS011;2698;51.454;6.736;2023-08-08T01:17:51;7.13;;;4.10;;
5351;SDS011;2698;51.454;6.736;2023-08-08T01:20:19;5.33;;;3.67;;
5351;SDS011;2698;51.454;6.736;2023-08-08T01:22:50;4.00;;;3.57;;
5351;SDS011;2698;51.454;6.736;2023-08-08T01:25:21;9.87;;;3.80;;
5351;SDS011;2698;51.454;6.736;2023-08-08T01:27:49;8.83;;;3.70;;
5351;SDS011;2698;51.454;6.736;2023-08-08T01:30:16;7.33;;;4.13;;
5351;SDS011;2698;51.454;6.736;2023-08-08T01:32:44;7.53;;;3.80;;
5351;SDS011;2698;51.454;6.736;2023-08-08T01:35:11;5.47;;;3.63;;
5351;SDS011;2698;51.454;6.736;2023-08-08T01:37:39;12.50;;;4.07;;
5351;SDS011;2698;51.454;6.736;2023-08-08T01:40:08;6.97;;;4.20;;
5351;SDS011;2698;51.454;6.736;2023-08-08T01:42:38;4.60;;;4.20;;
5351;SDS011;2698;51.454;6.736;2023-08-08T01:45:05;7.13;;;4.23;;
5351;SDS011;2698;51.454;6.736;2023-08-08T01:47:33;4.83;;;3.73;;
5351;SDS011;2698;51.454;6.736;2023-08-08T01:50:00;6.23;;;3.97;;
5351;SDS011;2698;51.454;6.736;2023-08-08T01:52:27;6.13;;;3.63;;
5351;SDS011;2698;51.454;6.736;2023-08-08T01:54:55;9.10;;;3.77;;
5351;SDS011;2698;51.454;6.736;2023-08-08T01:57:22;13.10;;;4.00;;
5351;SDS011;2698;51.454;6.736;2023-08-08T01:59:50;9.37;;;4.60;;
5351;SDS011;2698;51.454;6.736;2023-08-08T02:02:17;7.57;;;4.10;;
5351;SDS011;2698;51.454;6.736;2023-08-08T02:04:44;8.73;;;4.17;;
5351;SDS011;2698;51.454;6.736;2023-08-08T02:07:11;7.03;;;3.60;;
5351;SDS011;2698;51.454;6.736;2023-08-08T02:09:39;9.63;;;3.60;;
5351;SDS011;2698;51.454;6.736;2023-08-08T02:12:06;6.90;;;3.73;;
5351;SDS011;2698;51.454;6.736;2023-08-08T02:14:33;5.13;;;3.87;;
5351;SDS011;2698;51.454;6.736;2023-08-08T02:17:02;4.00;;;3.60;;
5351;SDS011;2698;51.454;6.736;2023-08-08T02:19:29;5.40;;;3.33;;
5351;SDS011;2698;51.454;6.736;2023-08-08T02:21:56;8.60;;;3.73;;
5351;SDS011;2698;51.454;6.736;2023-08-08T02:24:23;12.43;;;3.57;;
5351;SDS011;2698;51.454;6.736;2023-08-08T02:26:50;6.20;;;4.40;;
5351;SDS011;2698;51.454;6.736;2023-08-08T02:29:17;4.50;;;3.70;;
5351;SDS011;2698;51.454;6.736;2023-08-08T02:31:44;8.00;;;4.23;;
5351;SDS011;2698;51.454;6.736;2023-08-08T02:34:13;9.50;;;4.73;;
5351;SDS011;2698;51.454;6.736;2023-08-08T02:36:40;12.20;;;5.13;;
5351;SDS011;2698;51.454;6.736;2023-08-08T02:39:07;9.60;;;3.50;;
5351;SDS011;2698;51.454;6.736;2023-08-08T02:41:34;5.37;;;4.37;;
5351;SDS011;2698;51.454;6.736;2023-08-08T02:44:01;12.20;;;5.17;;
5351;SDS011;2698;51.454;6.736;2023-08-08T02:46:28;7.50;;;4.80;;
5351;SDS011;2698;51.454;6.736;2023-08-08T02:48:56;7.57;;;3.87;;
5351;SDS011;2698;51.454;6.736;2023-08-08T02:51:24;13.53;;;4.97;;
5351;SDS011;2698;51.454;6.736;2023-08-08T02:53:52;7.03;;;4.60;;
5351;SDS011;2698;51.454;6.736;2023-08-08T02:56:19;6.00;;;4.90;;
5351;SDS011;2698;51.454;6.736;2023-08-08T02:58:46;10.53;;;4.40;;
5351;SDS011;2698;51.454;6.736;2023-08-08T03:01:13;16.60;;;5.37;;
5351;SDS011;2698;51.454;6.736;2023-08-08T03:03:40;7.13;;;4.83;;
5351;SDS011;2698;51.454;6.736;2023-08-08T03:06:08;14.80;;;5.40;;
5351;SDS011;2698;51.454;6.736;2023-08-08T03:08:36;10.60;;;4.13;;
5351;SDS011;2698;51.454;6.736;2023-08-08T03:11:03;6.43;;;3.57;;
5351;SDS011;2698;51.454;6.736;2023-08-08T03:13:30;10.53;;;4.10;;
5351;SDS011;2698;51.454;6.736;2023-08-08T03:15:58;12.13;;;4.40;;
5351;SDS011;2698;51.454;6.736;2023-08-08T03:18:25;7.23;;;4.43;;
5351;SDS011;2698;51.454;6.736;2023-08-08T03:20:52;14.83;;;4.60;;
5351;SDS011;2698;51.454;6.736;2023-08-08T03:23:19;12.77;;;4.80;;
5351;SDS011;2698;51.454;6.736;2023-08-08T03:25:49;9.20;;;5.60;;
5351;SDS011;2698;51.454;6.736;2023-08-08T03:28:16;7.10;;;4.60;;
5351;SDS011;2698;51.454;6.736;2023-08-08T03:30:43;13.10;;;4.77;;
5351;SDS011;2698;51.454;6.736;2023-08-08T03:33:10;16.63;;;6.20;;
5351;SDS011;2698;51.454;6.736;2023-08-08T03:35:38;15.57;;;5.00;;
5351;SDS011;2698;51.454;6.736;2023-08-08T03:38:05;14.83;;;5.70;;
5351;SDS011;2698;51.454;6.736;2023-08-08T03:40:32;12.77;;;5.23;;
5351;SDS011;2698;51.454;6.736;2023-08-08T03:43:01;5.40;;;4.83;;
5351;SDS011;2698;51.454;6.736;2023-08-08T03:45:28;13.93;;;4.43;;
5351;SDS011;2698;51.454;6.736;2023-08-08T03:47:55;9.30;;;4.70;;
5351;SDS011;2698;51.454;6.736;2023-08-08T03:50:22;11.80;;;4.27;;
5351;SDS011;2698;51.454;6.736;2023-08-08T03:52:49;14.23;;;4.67;;
5351;SDS011;2698;51.454;6.736;2023-08-08T03:55:18;5.00;;;4.30;;
5351;SDS011;2698;51.454;6.736;2023-08-08T03:57:45;13.43;;;5.13;;
5351;SDS011;2698;51.454;6.736;2023-08-08T04:00:13;11.10;;;4.80;;
5351;SDS011;2698;51.454;6.736;2023-08-08T04:02:40;14.07;;;4.97;;
5351;SDS011;2698;51.454;6.736;2023-08-08T04:05:08;8.83;;;4.80;;
5351;SDS011;2698;51.454;6.736;2023-08-08T04:07:35;10.53;;;5.50;;
5351;SDS011;2698;51.454;6.736;2023-08-08T04:10:02;9.20;;;5.50;;
5351;SDS011;2698;51.454;6.736;2023-08-08T04:12:29;11.90;;;5.97;;
5351;SDS011;2698;51.454;6.736;2023-08-08T04:14:57;18.77;;;5.97;;
5351;SDS011;2698;51.454;6.736;2023-08-08T04:17:26;11.40;;;5.67;;
5351;SDS011;2698;51.454;6.736;2023-08-08T04:19:53;9.83;;;5.00;;
5351;SDS011;2698;51.454;6.736;2023-08-08T04:22:20;8.30;;;4.70;;
5351;SDS011;2698;51.454;6.736;2023-08-08T04:24:47;9.43;;;5.00;;
5351;SDS011;2698;51.454;6.736;2023-08-08T04:27:14;6.97;;;4.73;;
5351;SDS011;2698;51.454;6.736;2023-08-08T04:29:41;12.20;;;5.93;;
5351;SDS011;2698;51.454;6.736;2023-08-08T04:32:08;10.90;;;5.40;;
5351;SDS011;2698;51.454;6.736;2023-08-08T04:34:37;13.07;;;6.83;;
5351;SDS011;2698;51.454;6.736;2023-08-08T04:37:04;14.43;;;5.40;;
5351;SDS011;2698;51.454;6.736;2023-08-08T04:39:31;9.73;;;5.30;;
5351;SDS011;2698;51.454;6.736;2023-08-08T04:41:58;15.87;;;6.50;;
5351;SDS011;2698;51.454;6.736;2023-08-08T04:44:25;14.50;;;6.87;;
5351;SDS011;2698;51.454;6.736;2023-08-08T04:46:52;6.57;;;5.60;;
5351;SDS011;2698;51.454;6.736;2023-08-08T04:49:19;28.70;;;6.30;;
5351;SDS011;2698;51.454;6.736;2023-08-08T04:51:48;14.80;;;5.90;;
5351;SDS011;2698;51.454;6.736;2023-08-08T04:54:15;13.80;;;7.10;;
5351;SDS011;2698;51.454;6.736;2023-08-08T04:56:42;9.17;;;6.27;;
5351;SDS011;2698;51.454;6.736;2023-08-08T04:59:09;16.73;;;7.20;;
5351;SDS011;2698;51.454;6.736;2023-08-08T05:01:36;16.63;;;5.90;;
5351;SDS011;2698;51.454;6.736;2023-08-08T05:04:03;9.63;;;6.17;;
5351;SDS011;2698;51.454;6.736;2023-08-08T05:06:30;15.43;;;7.10;;
5351;SDS011;2698;51.454;6.736;2023-08-08T05:08:59;17.80;;;7.43;;
5351;SDS011;2698;51.454;6.736;2023-08-08T05:11:26;19.43;;;7.33;;
5351;SDS011;2698;51.454;6.736;2023-08-08T05:13:53;16.73;;;6.83;;
5351;SDS011;2698;51.454;6.736;2023-08-08T05:16:20;22.83;;;7.07;;
5351;SDS011;2698;51.454;6.736;2023-08-08T05:18:49;11.77;;;6.63;;
5351;SDS011;2698;51.454;6.736;2023-08-08T05:21:16;12.93;;;7.60;;
5351;SDS011;2698;51.454;6.736;2023-08-08T05:23:43;8.80;;;6.87;;
5351;SDS011;2698;51.454;6.736;2023-08-08T05:26:12;23.27;;;7.87;;
5351;SDS011;2698;51.454;6.736;2023-08-08T05:28:39;13.03;;;6.73;;
5351;SDS011;2698;51.454;6.736;2023-08-08T05:31:06;27.03;;;7.80;;
5351;SDS011;2698;51.454;6.736;2023-08-08T05:33:34;11.17;;;8.13;;
5351;SDS011;2698;51.454;6.736;2023-08-08T05:36:01;17.57;;;9.90;;
5351;SDS011;2698;51.454;6.736;2023-08-08T05:38:28;16.63;;;8.27;;
5351;SDS011;2698;51.454;6.736;2023-08-08T05:40:55;23.63;;;9.57;;
5351;SDS011;2698;51.454;6.736;2023-08-08T05:43:24;20.13;;;9.67;;
5351;SDS011;2698;51.454;6.736;2023-08-08T05:45:52;20.20;;;9.27;;
5351;SDS011;2698;51.454;6.736;2023-08-08T05:48:19;17.80;;;10.53;;
5351;SDS011;2698;51.454;6.736;2023-08-08T05:50:46;17.53;;;10.07;;
5351;SDS011;2698;51.454;6.736;2023-08-08T05:53:13;19.07;;;10.10;;
5351;SDS011;2698;51.454;6.736;2023-08-08T05:55:41;22.93;;;10.90;;
5351;SDS011;2698;51.454;6.736;2023-08-08T05:58:08;24.37;;;10.50;;
5351;SDS011;2698;51.454;6.736;2023-08-08T06:00:36;34.60;;;10.33;;
5351;SDS011;2698;51.454;6.736;2023-08-08T06:03:04;19.70;;;10.33;;
5351;SDS011;2698;51.454;6.736;2023-08-08T06:05:31;19.23;;;11.90;;
5351;SDS011;2698;51.454;6.736;2023-08-08T06:07:58;22.37;;;11.57;;
5351;SDS011;2698;51.454;6.736;2023-08-08T06:10:25;17.23;;;11.63;;
5351;SDS011;2698;51.454;6.736;2023-08-08T06:12:52;18.27;;;10.17;;
5351;SDS011;2698;51.454;6.736;2023-08-08T06:15:20;20.77;;;10.70;;
5351;SDS011;2698;51.454;6.736;2023-08-08T06:17:48;34.20;;;12.03;;
5351;SDS011;2698;51.454;6.736;2023-08-08T06:20:15;31.83;;;12.70;;
5351;SDS011;2698;51.454;6.736;2023-08-08T06:22:42;27.20;;;13.67;;
5351;SDS011;2698;51.454;6.736;2023-08-08T06:25:09;32.20;;;12.87;;
5351;SDS011;2698;51.454;6.736;2023-08-08T06:27:37;27.53;;;12.80;;
5351;SDS011;2698;51.454;6.736;2023-08-08T06:30:04;27.97;;;13.73;;
5351;SDS011;2698;51.454;6.736;2023-08-08T06:32:33;23.33;;;12.60;;
5351;SDS011;2698;51.454;6.736;2023-08-08T06:35:01;30.80;;;13.27;;
5351;SDS011;2698;51.454;6.736;2023-08-08T06:37:29;24.40;;;13.27;;
5351;SDS011;2698;51.454;6.736;2023-08-08T06:39:56;29.90;;;13.40;;
5351;SDS011;2698;51.454;6.736;2023-08-08T06:42:23;21.83;;;12.90;;
5351;SDS011;2698;51.454;6.736;2023-08-08T06:44:50;29.40;;;13.47;;
5351;SDS011;2698;51.454;6.736;2023-08-08T06:47:17;33.97;;;14.33;;
5351;SDS011;2698;51.454;6.736;2023-08-08T06:49:44;29.20;;;13.27;;
5351;SDS011;2698;51.454;6.736;2023-08-08T06:52:12;22.67;;;13.30;;
5351;SDS011;2698;51.454;6.736;2023-08-08T06:54:39;30.23;;;12.90;;
5351;SDS011;2698;51.454;6.736;2023-08-08T06:57:06;20.60;;;13.27;;
5351;SDS011;2698;51.454;6.736;2023-08-08T06:59:34;35.67;;;11.83;;
5351;SDS011;2698;51.454;6.736;2023-08-08T07:02:01;25.00;;;11.73;;
5351;SDS011;2698;51.454;6.736;2023-08-08T07:04:28;22.43;;;10.50;;
5351;SDS011;2698;51.454;6.736;2023-08-08T07:06:55;18.00;;;9.90;;
5351;SDS011;2698;51.454;6.736;2023-08-08T07:09:23;14.70;;;8.97;;
5351;SDS011;2698;51.454;6.736;2023-08-08T07:11:50;14.77;;;8.40;;
5351;SDS011;2698;51.454;6.736;2023-08-08T07:14:17;15.13;;;7.53;;
5351;SDS011;2698;51.454;6.736;2023-08-08T07:16:44;17.03;;;7.80;;
5351;SDS011;2698;51.454;6.736;2023-08-08T07:19:13;11.67;;;7.07;;
5351;SDS011;2698;51.454;6.736;2023-08-08T07:21:40;9.27;;;6.73;;
5351;SDS011;2698;51.454;6.736;2023-08-08T07:24:07;12.90;;;5.40;;
5351;SDS011;2698;51.454;6.736;2023-08-08T07:26:36;13.30;;;5.83;;
5351;SDS011;2698;51.454;6.736;2023-08-08T07:29:04;10.83;;;5.97;;
5351;SDS011;2698;51.454;6.736;2023-08-08T07:31:31;9.50;;;4.77;;
5351;SDS011;2698;51.454;6.736;2023-08-08T07:33:58;10.60;;;5.53;;
5351;SDS011;2698;51.454;6.736;2023-08-08T07:36:25;23.50;;;5.80;;
5351;SDS011;2698;51.454;6.736;2023-08-08T07:38:52;14.23;;;5.53;;
5351;SDS011;2698;51.454;6.736;2023-08-08T07:41:24;7.67;;;5.00;;
5351;SDS011;2698;51.454;6.736;2023-08-08T07:43:52;19.77;;;5.60;;
5351;SDS011;2698;51.454;6.736;2023-08-08T07:46:19;13.17;;;5.50;;
5351;SDS011;2698;51.454;6.736;2023-08-08T07:48:46;15.33;;;5.67;;
5351;SDS011;2698;51.454;6.736;2023-08-08T07:51:13;10.87;;;5.03;;
5351;SDS011;2698;51.454;6.736;2023-08-08T07:53:40;9.53;;;4.40;;
5351;SDS011;2698;51.454;6.736;2023-08-08T07:56:08;14.57;;;5.40;;
5351;SDS011;2698;51.454;6.736;2023-08-08T07:58:35;17.80;;;5.00;;
5351;SDS011;2698;51.454;6.736;2023-08-08T08:01:03;16.87;;;5.13;;
5351;SDS011;2698;51.454;6.736;2023-08-08T08:03:30;12.37;;;4.60;;
5351;SDS011;2698;51.454;6.736;2023-08-08T08:05:57;12.40;;;4.87;;
5351;SDS011;2698;51.454;6.736;2023-08-08T08:08:25;7.33;;;3.60;;
5351;SDS011;2698;51.454;6.736;2023-08-08T08:10:52;19.33;;;4.87;;
5351;SDS011;2698;51.454;6.736;2023-08-08T08:13:19;14.07;;;4.90;;
5351;SDS011;2698;51.454;6.736;2023-08-08T08:15:46;7.00;;;3.70;;
5351;SDS011;2698;51.454;6.736;2023-08-08T08:18:15;10.60;;;4.07;;
5351;SDS011;2698;51.454;6.736;2023-08-08T08:20:42;12.80;;;3.80;;
5351;SDS011;2698;51.454;6.736;2023-08-08T08:23:09;8.57;;;3.53;;
5351;SDS011;2698;51.454;6.736;2023-08-08T08:25:36;11.13;;;3.23;;
5351;SDS011;2698;51.454;6.736;2023-08-08T08:28:04;8.33;;;3.50;;
5351;SDS011;2698;51.454;6.736;2023-08-08T08:30:31;15.70;;;3.67;;
5351;SDS011;2698;51.454;6.736;2023-08-08T08:32:58;16.67;;;4.30;;
5351;SDS011;2698;51.454;6.736;2023-08-08T08:35:26;10.23;;;3.80;;
5351;SDS011;2698;51.454;6.736;2023-08-08T08:37:54;12.00;;;4.50;;
5351;SDS011;2698;51.454;6.736;2023-08-08T08:40:21;14.57;;;3.67;;
5351;SDS011;2698;51.454;6.736;2023-08-08T08:42:48;13.43;;;3.20;;
5351;SDS011;2698;51.454;6.736;2023-08-08T08:45:15;9.37;;;3.60;;
5351;SDS011;2698;51.454;6.736;2023-08-08T08:47:43;19.47;;;4.00;;
5351;SDS011;2698;51.454;6.736;2023-08-08T08:50:13;7.67;;;3.70;;
5351;SDS011;2698;51.454;6.736;2023-08-08T08:52:43;17.97;;;3.67;;
5351;SDS011;2698;51.454;6.736;2023-08-08T08:55:11;12.03;;;3.13;;
5351;SDS011;2698;51.454;6.736;2023-08-08T08:57:38;3.83;;;2.70;;
5351;SDS011;2698;51.454;6.736;2023-08-08T09:00:06;8.07;;;3.13;;
5351;SDS011;2698;51.454;6.736;2023-08-08T09:02:34;10.50;;;4.43;;
5351;SDS011;2698;51.454;6.736;2023-08-08T09:05:01;15.53;;;2.83;;
5351;SDS011;2698;51.454;6.736;2023-08-08T09:07:30;15.93;;;4.23;;
5351;SDS011;2698;51.454;6.736;2023-08-08T09:10:00;10.63;;;3.03;;
5351;SDS011;2698;51.454;6.736;2023-08-08T09:12:27;14.80;;;3.30;;
5351;SDS011;2698;51.454;6.736;2023-08-08T09:14:54;12.10;;;3.00;;
5351;SDS011;2698;51.454;6.736;2023-08-08T09:17:24;8.20;;;3.27;;
5351;SDS011;2698;51.454;6.736;2023-08-08T09:19:52;13.00;;;3.73;;
5351;SDS011;2698;51.454;6.736;2023-08-08T09:22:19;9.73;;;3.00;;
5351;SDS011;2698;51.454;6.736;2023-08-08T09:24:48;13.77;;;3.97;;
5351;SDS011;2698;51.454;6.736;2023-08-08T09:27:17;9.63;;;4.17;;
5351;SDS011;2698;51.454;6.736;2023-08-08T09:29:44;8.03;;;3.13;;
5351;SDS011;2698;51.454;6.736;2023-08-08T09:32:12;11.30;;;4.00;;
5351;SDS011;2698;51.454;6.736;2023-08-08T09:34:40;13.90;;;3.60;;
5351;SDS011;2698;51.454;6.736;2023-08-08T09:37:08;9.50;;;4.07;;
5351;SDS011;2698;51.454;6.736;2023-08-08T09:39:35;13.60;;;3.50;;
5351;SDS011;2698;51.454;6.736;2023-08-08T09:42:02;16.90;;;3.87;;
5351;SDS011;2698;51.454;6.736;2023-08-08T09:44:31;10.93;;;3.33;;
5351;SDS011;2698;51.454;6.736;2023-08-08T09:47:00;25.07;;;3.53;;
5351;SDS011;2698;51.454;6.736;2023-08-08T09:49:28;7.67;;;3.17;;
5351;SDS011;2698;51.454;6.736;2023-08-08T09:51:57;6.47;;;2.90;;
5351;SDS011;2698;51.454;6.736;2023-08-08T09:54:24;14.27;;;3.97;;
5351;SDS011;2698;51.454;6.736;2023-08-08T09:56:52;9.37;;;4.27;;
5351;SDS011;2698;51.454;6.736;2023-08-08T09:59:20;17.30;;;4.67;;
5351;SDS011;2698;51.454;6.736;2023-08-08T10:01:48;22.00;;;7.13;;
5351;SDS011;2698;51.454;6.736;2023-08-08T10:04:16;10.47;;;5.17;;
5351;SDS011;2698;51.454;6.736;2023-08-08T10:06:43;19.93;;;5.77;;
5351;SDS011;2698;51.454;6.736;2023-08-08T10:09:11;14.23;;;3.80;;
5351;SDS011;2698;51.454;6.736;2023-08-08T10:11:38;9.90;;;4.20;;
5351;SDS011;2698;51.454;6.736;2023-08-08T10:14:07;13.07;;;4.00;;
5351;SDS011;2698;51.454;6.736;2023-08-08T10:16:36;9.77;;;3.27;;
5351;SDS011;2698;51.454;6.736;2023-08-08T10:19:05;8.50;;;4.90;;
5351;SDS011;2698;51.454;6.736;2023-08-08T10:21:33;12.60;;;4.53;;
5351;SDS011;2698;51.454;6.736;2023-08-08T10:24:01;13.07;;;3.97;;
5351;SDS011;2698;51.454;6.736;2023-08-08T10:26:28;6.30;;;3.50;;
5351;SDS011;2698;51.454;6.736;2023-08-08T10:28:57;14.93;;;5.80;;
5351;SDS011;2698;51.454;6.736;2023-08-08T10:31:24;8.57;;;4.40;;
5351;SDS011;2698;51.454;6.736;2023-08-08T10:34:00;10.80;;;4.13;;
5351;SDS011;2698;51.454;6.736;2023-08-08T10:39:21;7.00;;;2.30;;
5351;SDS011;2698;51.454;6.736;2023-08-08T10:41:49;8.30;;;3.47;;
5351;SDS011;2698;51.454;6.736;2023-08-08T10:44:22;6.83;;;3.40;;
5351;SDS011;2698;51.454;6.736;2023-08-08T10:46:50;10.27;;;3.00;;
5351;SDS011;2698;51.454;6.736;2023-08-08T10:49:17;13.17;;;3.53;;
5351;SDS011;2698;51.454;6.736;2023-08-08T10:51:46;9.43;;;3.57;;
5351;SDS011;2698;51.454;6.736;2023-08-08T10:54:13;13.20;;;3.67;;
5351;SDS011;2698;51.454;6.736;2023-08-08T10:56:46;10.97;;;2.90;;
5351;SDS011;2698;51.454;6.736;2023-08-08T10:59:14;8.17;;;3.03;;
5351;SDS011;2698;51.454;6.736;2023-08-08T11:01:42;5.90;;;2.50;;
5351;SDS011;2698;51.454;6.736;2023-08-08T11:04:11;10.03;;;3.70;;
5351;SDS011;2698;51.454;6.736;2023-08-08T11:06:39;7.63;;;3.53;;
5351;SDS011;2698;51.454;6.736;2023-08-08T11:09:06;8.40;;;3.27;;
5351;SDS011;2698;51.454;6.736;2023-08-08T11:11:35;9.17;;;2.70;;
5351;SDS011;2698;51.454;6.736;2023-08-08T11:14:10;16.53;;;4.33;;
5351;SDS011;2698;51.454;6.736;2023-08-08T11:16:37;2.97;;;2.20;;
5351;SDS011;2698;51.454;6.736;2023-08-08T11:19:04;3.23;;;2.13;;
5351;SDS011;2698;51.454;6.736;2023-08-08T11:21:35;14.03;;;3.73;;
5351;SDS011;2698;51.454;6.736;2023-08-08T11:24:03;9.47;;;2.73;;
5351;SDS011;2698;51.454;6.736;2023-08-08T11:26:31;5.60;;;2.67;;
5351;SDS011;2698;51.454;6.736;2023-08-08T11:28:58;5.80;;;2.40;;
5351;SDS011;2698;51.454;6.736;2023-08-08T11:31:28;8.63;;;2.50;;
5351;SDS011;2698;51.454;6.736;2023-08-08T11:33:55;8.17;;;2.47;;
5351;SDS011;2698;51.454;6.736;2023-08-08T11:36:22;5.87;;;2.63;;
5351;SDS011;2698;51.454;6.736;2023-08-08T11:38:50;3.80;;;2.70;;
5351;SDS011;2698;51.454;6.736;2023-08-08T11:41:19;7.07;;;2.67;;
5351;SDS011;2698;51.454;6.736;2023-08-08T11:43:47;7.50;;;3.27;;
5351;SDS011;2698;51.454;6.736;2023-08-08T11:46:14;3.40;;;2.40;;
5351;SDS011;2698;51.454;6.736;2023-08-08T11:48:45;10.80;;;3.10;;
5351;SDS011;2698;51.454;6.736;2023-08-08T11:51:14;7.90;;;3.00;;
5351;SDS011;2698;51.454;6.736;2023-08-08T11:53:47;2.30;;;2.10;;
5351;SDS011;2698;51.454;6.736;2023-08-08T11:56:15;7.53;;;2.87;;
5351;SDS011;2698;51.454;6.736;2023-08-08T11:58:42;6.73;;;3.47;;
5351;SDS011;2698;51.454;6.736;2023-08-08T12:01:10;6.90;;;3.37;;
5351;SDS011;2698;51.454;6.736;2023-08-08T12:03:39;6.60;;;3.20;;
5351;SDS011;2698;51.454;6.736;2023-08-08T12:06:12;20.13;;;3.20;;
5351;SDS011;2698;51.454;6.736;2023-08-08T12:08:40;11.47;;;2.80;;
5351;SDS011;2698;51.454;6.736;2023-08-08T12:11:08;10.90;;;3.10;;
5351;SDS011;2698;51.454;6.736;2023-08-08T12:13:36;6.40;;;2.90;;
5351;SDS011;2698;51.454;6.736;2023-08-08T12:16:04;9.70;;;4.37;;
5351;SDS011;2698;51.454;6.736;2023-08-08T12:18:32;5.07;;;2.53;;
5351;SDS011;2698;51.454;6.736;2023-08-08T12:20:59;4.93;;;2.63;;
5351;SDS011;2698;51.454;6.736;2023-08-08T12:23:28;5.80;;;3.27;;
5351;SDS011;2698;51.454;6.736;2023-08-08T12:25:56;6.43;;;3.03;;
5351;SDS011;2698;51.454;6.736;2023-08-08T12:28:24;3.53;;;2.60;;
5351;SDS011;2698;51.454;6.736;2023-08-08T12:30:51;3.67;;;2.70;;
5351;SDS011;2698;51.454;6.736;2023-08-08T12:33:18;10.17;;;3.47;;
5351;SDS011;2698;51.454;6.736;2023-08-08T12:35:46;6.40;;;3.00;;
5351;SDS011;2698;51.454;6.736;2023-08-08T12:38:13;8.10;;;3.37;;
5351;SDS011;2698;51.454;6.736;2023-08-08T12:40:42;14.10;;;4.00;;
5351;SDS011;2698;51.454;6.736;2023-08-08T12:43:09;5.03;;;2.70;;
5351;SDS011;2698;51.454;6.736;2023-08-08T12:45:38;4.57;;;2.73;;
5351;SDS011;2698;51.454;6.736;2023-08-08T12:48:06;7.47;;;2.70;;
5351;SDS011;2698;51.454;6.736;2023-08-08T12:50:33;3.60;;;2.80;;
5351;SDS011;2698;51.454;6.736;2023-08-08T12:53:00;8.90;;;3.00;;
5351;SDS011;2698;51.454;6.736;2023-08-08T12:55:29;3.40;;;2.30;;
5351;SDS011;2698;51.454;6.736;2023-08-08T12:57:57;11.23;;;3.10;;
5351;SDS011;2698;51.454;6.736;2023-08-08T13:00:24;3.60;;;2.40;;
5351;SDS011;2698;51.454;6.736;2023-08-08T13:02:52;5.87;;;2.73;;
5351;SDS011;2698;51.454;6.736;2023-08-08T13:05:19;3.90;;;2.40;;
5351;SDS011;2698;51.454;6.736;2023-08-08T13:07:46;4.10;;;2.60;;
5351;SDS011;2698;51.454;6.736;2023-08-08T13:10:13;5.60;;;2.40;;
5351;SDS011;2698;51.454;6.736;2023-08-08T13:12:41;9.37;;;3.07;;
5351;SDS011;2698;51.454;6.736;2023-08-08T13:15:09;5.03;;;2.70;;
5351;SDS011;2698;51.454;6.736;2023-08-08T13:17:37;11.90;;;3.30;;
5351;SDS011;2698;51.454;6.736;2023-08-08T13:20:04;5.57;;;3.20;;
5351;SDS011;2698;51.454;6.736;2023-08-08T13:22:32;6.57;;;2.97;;
5351;SDS011;2698;51.454;6.736;2023-08-08T13:24:59;4.87;;;3.03;;
5351;SDS011;2698;51.454;6.736;2023-08-08T13:27:27;6.70;;;2.47;;
5351;SDS011;2698;51.454;6.736;2023-08-08T13:29:54;7.10;;;2.60;;
5351;SDS011;2698;51.454;6.736;2023-08-08T13:32:22;2.40;;;2.13;;
5351;SDS011;2698;51.454;6.736;2023-08-08T13:34:49;3.97;;;2.50;;
5351;SDS011;2698;51.454;6.736;2023-08-08T13:37:16;2.30;;;2.07;;
5351;SDS011;2698;51.454;6.736;2023-08-08T13:39:44;7.70;;;2.80;;
5351;SDS011;2698;51.454;6.736;2023-08-08T13:42:11;5.57;;;2.33;;
5351;SDS011;2698;51.454;6.736;2023-08-08T13:44:38;4.77;;;2.67;;
5351;SDS011;2698;51.454;6.736;2023-08-08T13:47:05;5.43;;;2.40;;
5351;SDS011;2698;51.454;6.736;2023-08-08T13:49:33;2.23;;;2.00;;
5351;SDS011;2698;51.454;6.736;2023-08-08T13:52:01;11.60;;;2.53;;
5351;SDS011;2698;51.454;6.736;2023-08-08T13:54:28;3.07;;;2.33;;
5351;SDS011;2698;51.454;6.736;2023-08-08T13:56:55;2.83;;;2.10;;
5351;SDS011;2698;51.454;6.736;2023-08-08T13:59:22;5.30;;;2.77;;
5351;SDS011;2698;51.454;6.736;2023-08-08T14:01:49;8.60;;;2.73;;
5351;SDS011;2698;51.454;6.736;2023-08-08T14:04:16;4.13;;;2.60;;
5351;SDS011;2698;51.454;6.736;2023-08-08T14:06:45;6.37;;;2.50;;
5351;SDS011;2698;51.454;6.736;2023-08-08T14:09:12;4.20;;;2.80;;
5351;SDS011;2698;51.454;6.736;2023-08-08T14:11:39;3.03;;;2.20;;
5351;SDS011;2698;51.454;6.736;2023-08-08T14:14:06;8.60;;;2.50;;
5351;SDS011;2698;51.454;6.736;2023-08-08T14:16:33;3.73;;;2.40;;
5351;SDS011;2698;51.454;6.736;2023-08-08T14:19:01;4.60;;;2.83;;
5351;SDS011;2698;51.454;6.736;2023-08-08T14:21:28;5.60;;;2.10;;
5351;SDS011;2698;51.454;6.736;2023-08-08T14:23:57;4.97;;;2.73;;
5351;SDS011;2698;51.454;6.736;2023-08-08T14:26:24;2.20;;;1.87;;
5351;SDS011;2698;51.454;6.736;2023-08-08T14:28:51;2.33;;;2.10;;
5351;SDS011;2698;51.454;6.736;2023-08-08T14:31:18;2.40;;;2.20;;
5351;SDS011;2698;51.454;6.736;2023-08-08T14:33:45;4.33;;;1.90;;
5351;SDS011;2698;51.454;6.736;2023-08-08T14:36:12;11.00;;;1.90;;
5351;SDS011;2698;51.454;6.736;2023-08-08T14:38:40;2.03;;;1.80;;
5351;SDS011;2698;51.454;6.736;2023-08-08T14:41:08;1.87;;;1.77;;
5351;SDS011;2698;51.454;6.736;2023-08-08T14:43:35;5.10;;;2.03;;
5351;SDS011;2698;51.454;6.736;2023-08-08T14:46:02;1.60;;;1.50;;
5351;SDS011;2698;51.454;6.736;2023-08-08T14:48:30;2.63;;;1.70;;
5351;SDS011;2698;51.454;6.736;2023-08-08T14:50:59;1.80;;;1.60;;
5351;SDS011;2698;51.454;6.736;2023-08-08T14:53:26;2.13;;;1.67;;
5351;SDS011;2698;51.454;6.736;2023-08-08T14:55:54;1.60;;;1.50;;
5351;SDS011;2698;51.454;6.736;2023-08-08T14:58:22;2.23;;;1.53;;
5351;SDS011;2698;51.454;6.736;2023-08-08T15:00:50;7.60;;;1.50;;
5351;SDS011;2698;51.454;6.736;2023-08-08T15:03:17;1.30;;;1.20;;
5351;SDS011;2698;51.454;6.736;2023-08-08T15:05:44;3.60;;;1.60;;
5351;SDS011;2698;51.454;6.736;2023-08-08T15:08:13;1.93;;;1.80;;
5351;SDS011;2698;51.454;6.736;2023-08-08T15:10:40;1.87;;;1.53;;
5351;SDS011;2698;51.454;6.736;2023-08-08T15:13:08;2.27;;;1.53;;